createdAt,value
2022-10-23T00:00:18.412Z,7.94
2022-10-23T00:03:08.620Z,7.97
2022-10-23T00:05:40.560Z,8.00
2022-10-23T00:08:08.155Z,7.92
2022-10-23T00:10:43.322Z,8.00
2022-10-23T00:13:12.485Z,8.01
2022-10-23T00:15:39.475Z,7.93
2022-10-23T00:18:06.475Z,7.93
2022-10-23T00:20:40.550Z,7.86
2022-10-23T00:23:07.546Z,7.85
2022-10-23T00:25:34.579Z,7.88
2022-10-23T00:28:01.866Z,7.85
2022-10-23T00:30:31.064Z,7.96
2022-10-23T00:33:00.471Z,7.94
2022-10-23T00:35:27.674Z,8.06
2022-10-23T00:37:54.589Z,8.05
2022-10-23T00:40:24.642Z,8.12
2022-10-23T00:42:51.940Z,7.95
2022-10-23T00:45:31.244Z,8.06
2022-10-23T00:48:01.916Z,8.02
2022-10-23T00:50:38.710Z,7.93
2022-10-23T00:53:09.147Z,8.02
2022-10-23T00:55:46.015Z,8.06
2022-10-23T00:58:16.898Z,8.00
2022-10-23T01:00:55.418Z,8.00
2022-10-23T01:03:29.331Z,8.02
2022-10-23T01:06:06.564Z,7.85
2022-10-23T01:08:48.071Z,7.75
2022-10-23T01:11:24.670Z,7.58
2022-10-23T01:14:06.513Z,7.50
2022-10-23T01:16:38.727Z,7.52
2022-10-23T01:19:19.601Z,7.41
2022-10-23T01:22:00.511Z,7.46
2022-10-23T01:24:33.250Z,7.30
2022-10-23T01:27:17.305Z,7.22
2022-10-23T01:29:51.520Z,7.14
2022-10-23T01:32:44.743Z,7.16
2022-10-23T01:35:19.155Z,7.06
2022-10-23T01:38:15.204Z,7.00
2022-10-23T01:40:50.143Z,6.88
2022-10-23T01:43:25.608Z,6.63
2022-10-23T01:46:07.324Z,6.48
2022-10-23T01:48:38.370Z,6.38
2022-10-23T01:51:17.574Z,6.22
2022-10-23T01:53:48.096Z,6.21
2022-10-23T01:56:20.365Z,6.05
2022-10-23T01:59:02.301Z,6.06
2022-10-23T02:01:36.487Z,5.94
2022-10-23T02:04:16.213Z,6.03
2022-10-23T02:06:43.401Z,5.94
2022-10-23T02:09:17.172Z,5.95
2022-10-23T02:12:07.567Z,5.91
2022-10-23T02:14:46.093Z,5.86
2022-10-23T02:17:33.634Z,5.85
2022-10-23T02:20:18.541Z,5.83
2022-10-23T02:23:11.241Z,5.70
2022-10-23T02:25:47.848Z,5.72
2022-10-23T02:28:22.360Z,5.76
2022-10-23T02:30:59.131Z,5.63
2022-10-23T02:33:28.883Z,5.66
2022-10-23T02:35:58.558Z,5.53
2022-10-23T02:38:42.053Z,5.50
2022-10-23T02:41:15.241Z,5.53
2022-10-23T02:44:13.225Z,5.48
2022-10-23T02:47:04.872Z,5.48
2022-10-23T02:49:52.217Z,5.43
2022-10-23T02:52:35.578Z,5.49
2022-10-23T02:55:22.356Z,5.39
2022-10-23T02:57:57.386Z,5.32
2022-10-23T03:00:25.128Z,5.35
2022-10-23T03:03:30.072Z,5.41
2022-10-23T03:05:57.206Z,5.30
2022-10-23T03:08:26.829Z,5.26
2022-10-23T03:10:53.861Z,5.29
2022-10-23T03:13:23.550Z,5.25
2022-10-23T03:15:53.414Z,5.28
2022-10-23T03:18:25.868Z,5.32
2022-10-23T03:20:52.796Z,5.28
2022-10-23T03:23:22.646Z,5.25
2022-10-23T03:25:49.688Z,5.22
2022-10-23T03:28:30.610Z,5.16
2022-10-23T03:31:02.265Z,5.08
2022-10-23T03:33:32.676Z,5.08
2022-10-23T03:36:10.298Z,5.03
2022-10-23T03:38:37.323Z,5.03
2022-10-23T03:41:05.651Z,5.06
2022-10-23T03:43:35.162Z,4.93
2022-10-23T03:46:09.351Z,4.97
2022-10-23T03:48:39.690Z,4.96
2022-10-23T03:51:06.962Z,4.96
2022-10-23T03:53:34.608Z,5.00
2022-10-23T03:56:06.876Z,5.04
2022-10-23T03:58:34.384Z,5.00
2022-10-23T04:01:01.695Z,4.93
2022-10-23T04:03:29.123Z,4.90
2022-10-23T04:05:59.202Z,4.85
2022-10-23T04:08:28.610Z,4.92
2022-10-23T04:10:58.418Z,4.93
2022-10-23T04:13:44.212Z,4.93
2022-10-23T04:16:13.993Z,4.87
2022-10-23T04:18:41.943Z,4.92
2022-10-23T04:21:26.805Z,4.90
2022-10-23T04:23:55.454Z,4.91
2022-10-23T04:26:22.925Z,4.90
2022-10-23T04:28:58.910Z,4.80
2022-10-23T04:31:28.759Z,4.83
2022-10-23T04:33:55.843Z,4.89
2022-10-23T04:36:30.456Z,4.96
2022-10-23T04:39:04.629Z,4.93
2022-10-23T04:41:38.962Z,5.02
2022-10-23T04:44:06.720Z,5.01
2022-10-23T04:46:45.125Z,4.98
2022-10-23T04:49:12.472Z,4.93
2022-10-23T04:51:54.670Z,5.00
2022-10-23T04:54:37.842Z,4.92
2022-10-23T04:57:23.075Z,5.01
2022-10-23T05:00:00.603Z,5.01
2022-10-23T05:02:30.274Z,4.90
2022-10-23T05:04:57.392Z,5.09
2022-10-23T05:07:37.889Z,5.20
2022-10-23T05:10:22.023Z,5.36
2022-10-23T05:13:03.008Z,5.42
2022-10-23T05:15:30.718Z,5.55
2022-10-23T05:18:05.280Z,5.65
2022-10-23T05:20:36.407Z,5.52
2022-10-23T05:23:11.160Z,5.47
2022-10-23T05:25:39.077Z,5.53
2022-10-23T05:28:17.844Z,5.75
2022-10-23T05:30:57.672Z,5.79
2022-10-23T05:33:29.080Z,5.93
2022-10-23T05:36:00.035Z,6.19
2022-10-23T05:38:32.420Z,6.07
2022-10-23T05:41:04.881Z,6.14
2022-10-23T05:43:37.696Z,6.17
2022-10-23T05:46:42.437Z,6.36
2022-10-23T05:49:44.958Z,6.40
2022-10-23T05:52:32.141Z,6.15
2022-10-23T05:55:05.337Z,6.22
2022-10-23T05:57:52.122Z,6.27
2022-10-23T06:00:29.619Z,6.22
2022-10-23T06:03:16.643Z,6.28
2022-10-23T06:05:53.418Z,6.25
2022-10-23T06:08:24.422Z,6.32
2022-10-23T06:10:51.992Z,6.36
2022-10-23T06:13:26.179Z,6.39
2022-10-23T06:15:53.659Z,6.55
2022-10-23T06:18:32.399Z,6.56
2022-10-23T06:21:07.559Z,6.64
2022-10-23T06:23:39.580Z,6.61
2022-10-23T06:26:35.498Z,6.60
2022-10-23T06:29:11.594Z,6.62
2022-10-23T06:31:49.490Z,6.60
2022-10-23T06:34:20.014Z,6.75
2022-10-23T06:36:49.725Z,7.01
2022-10-23T06:39:48.199Z,6.98
2022-10-23T06:42:19.414Z,6.87
2022-10-23T06:44:52.264Z,6.97
2022-10-23T06:47:42.015Z,7.01
2022-10-23T06:50:31.242Z,7.01
2022-10-23T06:53:06.593Z,6.93
2022-10-23T06:58:29.614Z,7.20
2022-10-23T07:01:13.667Z,7.06
2022-10-23T07:03:45.664Z,7.03
2022-10-23T07:06:20.514Z,7.11
2022-10-23T07:08:47.882Z,7.15
2022-10-23T07:11:35.901Z,7.27
2022-10-23T07:14:02.926Z,7.23
2022-10-23T07:16:37.239Z,7.15
2022-10-23T07:19:07.825Z,7.01
2022-10-23T07:21:56.067Z,7.00
2022-10-23T07:24:38.823Z,7.00
2022-10-23T07:27:22.590Z,7.04
2022-10-23T07:29:55.812Z,7.15
2022-10-23T07:32:30.512Z,7.10
2022-10-23T07:35:36.999Z,7.05
2022-10-23T07:38:22.695Z,6.97
2022-10-23T07:41:01.966Z,7.24
2022-10-23T07:43:54.042Z,7.35
2022-10-23T07:46:21.143Z,7.31
2022-10-23T07:48:48.706Z,7.24
2022-10-23T07:51:21.251Z,7.21
2022-10-23T07:53:54.912Z,7.39
2022-10-23T07:56:50.560Z,7.35
2022-10-23T07:59:26.366Z,7.54
2022-10-23T08:01:59.907Z,7.69
2022-10-23T08:04:44.786Z,7.78
2022-10-23T08:07:34.515Z,7.75
2022-10-23T08:10:01.651Z,7.73
2022-10-23T08:12:38.936Z,7.72
2022-10-23T08:15:09.041Z,7.56
2022-10-23T08:17:48.869Z,7.48
2022-10-23T08:20:44.440Z,7.35
2022-10-23T08:23:12.697Z,7.47
2022-10-23T08:25:41.068Z,7.50
2022-10-23T08:28:09.849Z,7.48
2022-10-23T08:30:46.717Z,7.29
2022-10-23T08:33:22.178Z,7.44
2022-10-23T08:35:49.687Z,7.53
2022-10-23T08:38:30.367Z,7.69
2022-10-23T08:41:01.632Z,7.90
2022-10-23T08:43:50.598Z,7.75
2022-10-23T08:46:38.705Z,7.52
2022-10-23T08:49:22.774Z,7.48
2022-10-23T08:52:08.068Z,7.62
2022-10-23T08:55:00.631Z,7.79
2022-10-23T08:57:45.600Z,7.98
2022-10-23T09:00:18.282Z,8.00
2022-10-23T09:02:53.586Z,7.94
2022-10-23T09:06:18.906Z,8.13
2022-10-23T09:09:15.361Z,7.97
2022-10-23T09:11:52.424Z,7.90
2022-10-23T09:14:49.043Z,8.01
2022-10-23T09:17:31.281Z,8.01
2022-10-23T09:20:22.751Z,8.08
2022-10-23T09:22:57.476Z,8.00
2022-10-23T09:25:32.736Z,8.10
2022-10-23T09:28:05.215Z,8.05
2022-10-23T09:30:42.064Z,7.76
2022-10-23T09:33:18.234Z,7.77
2022-10-23T09:36:12.589Z,7.73
2022-10-23T09:38:45.733Z,7.63
2022-10-23T09:41:38.092Z,7.72
2022-10-23T09:44:07.877Z,7.74
2022-10-23T09:47:12.308Z,7.89
2022-10-23T09:49:46.905Z,7.76
2022-10-23T09:52:14.062Z,7.76
2022-10-23T09:54:44.213Z,7.76
2022-10-23T09:57:23.207Z,7.72
2022-10-23T10:00:16.687Z,7.68
2022-10-23T10:02:55.434Z,7.78
2022-10-23T10:05:44.043Z,7.95
2022-10-23T10:08:39.437Z,7.93
2022-10-23T10:11:09.375Z,7.86
2022-10-23T10:14:09.759Z,7.96
2022-10-23T10:17:08.633Z,7.82
2022-10-23T10:20:25.777Z,7.68
2022-10-23T10:23:29.417Z,7.58
2022-10-23T10:27:21.307Z,7.65
2022-10-23T10:29:54.172Z,7.76
2022-10-23T10:32:33.719Z,7.65
2022-10-23T10:35:12.830Z,7.66
2022-10-23T10:37:57.474Z,7.55
2022-10-23T10:40:33.325Z,7.52
2022-10-23T10:43:24.756Z,7.56
2022-10-23T10:46:05.440Z,7.51
2022-10-23T10:48:41.312Z,7.59
2022-10-23T10:51:57.599Z,7.69
2022-10-23T10:54:57.745Z,7.68
2022-10-23T10:57:49.645Z,7.88
2022-10-23T11:00:24.578Z,7.92
2022-10-23T11:02:57.492Z,8.06
2022-10-23T11:05:46.783Z,8.03
2022-10-23T11:08:24.560Z,8.07
2022-10-23T11:11:00.492Z,8.12
2022-10-23T11:13:40.918Z,8.16
2022-10-23T11:16:26.902Z,8.14
2022-10-23T11:19:22.015Z,8.15
2022-10-23T11:21:51.916Z,8.10
2022-10-23T11:25:04.141Z,8.26
2022-10-23T11:28:10.766Z,8.36
2022-10-23T11:31:21.482Z,8.23
2022-10-23T11:34:14.639Z,8.13
2022-10-23T11:36:50.467Z,8.09
2022-10-23T11:42:11.386Z,8.00
2022-10-23T11:44:51.906Z,7.97
2022-10-23T11:47:40.845Z,7.92
2022-10-23T11:50:07.834Z,7.92
2022-10-23T11:53:13.560Z,7.85
2022-10-23T11:56:16.832Z,8.01
2022-10-23T11:58:49.612Z,8.11
2022-10-23T12:01:19.647Z,8.05
2022-10-23T12:03:55.994Z,8.08
2022-10-23T12:06:32.104Z,8.15
2022-10-23T12:09:06.880Z,8.15
2022-10-23T12:12:20.909Z,8.12
2022-10-23T12:14:50.435Z,7.96
2022-10-23T12:17:23.414Z,7.77
2022-10-23T12:20:04.201Z,7.71
2022-10-23T12:23:00.339Z,7.83
2022-10-23T12:25:35.725Z,7.93
2022-10-23T12:28:26.567Z,7.92
2022-10-23T12:31:17.746Z,7.84
2022-10-23T12:34:04.728Z,7.63
2022-10-23T12:37:09.534Z,7.48
2022-10-23T12:39:40.475Z,7.49
2022-10-23T12:42:17.555Z,7.59
2022-10-23T12:44:45.742Z,7.68
2022-10-23T12:47:21.578Z,7.66
2022-10-23T12:49:53.380Z,7.75
2022-10-23T12:52:21.483Z,7.68
2022-10-23T12:54:58.686Z,7.68
2022-10-23T12:57:32.114Z,7.66
2022-10-23T13:00:06.301Z,7.76
2022-10-23T13:02:35.831Z,7.76
2022-10-23T13:05:07.757Z,7.84
2022-10-23T13:07:47.249Z,7.81
2022-10-23T13:10:22.072Z,8.02
2022-10-23T13:13:01.957Z,8.11
2022-10-23T13:15:41.142Z,8.21
2022-10-23T13:18:11.064Z,8.20
2022-10-23T13:20:47.924Z,8.17
2022-10-23T13:23:34.692Z,8.02
2022-10-23T13:26:04.186Z,7.92
2022-10-23T13:28:45.731Z,7.90
2022-10-23T13:31:15.679Z,7.94
2022-10-23T13:33:51.036Z,8.03
2022-10-23T13:36:18.629Z,8.10
2022-10-23T13:39:04.524Z,8.15
2022-10-23T13:41:46.701Z,8.18
2022-10-23T13:44:25.665Z,8.16
2022-10-23T13:46:55.823Z,8.08
2022-10-23T13:49:30.045Z,8.16
2022-10-23T13:52:05.956Z,8.21
2022-10-23T13:54:33.167Z,8.21
2022-10-23T13:57:03.377Z,8.19
2022-10-23T13:59:33.515Z,8.16
2022-10-23T14:02:05.067Z,8.25
2022-10-23T14:04:34.380Z,8.20
2022-10-23T14:07:09.105Z,8.27
2022-10-23T14:09:36.123Z,8.29
2022-10-23T14:12:18.245Z,8.23
2022-10-23T14:14:51.152Z,8.17
2022-10-23T14:17:19.256Z,8.22
2022-10-23T14:19:46.668Z,8.29
2022-10-23T14:22:18.318Z,8.33
2022-10-23T14:24:47.601Z,8.40
2022-10-23T14:27:14.680Z,8.31
2022-10-23T14:29:43.920Z,8.27
2022-10-23T14:32:14.234Z,8.34
2022-10-23T14:34:44.036Z,8.27
2022-10-23T14:37:14.326Z,8.27
2022-10-23T14:39:48.911Z,8.26
2022-10-23T14:42:35.656Z,8.26
2022-10-23T14:45:05.701Z,8.23
2022-10-23T14:47:40.549Z,8.31
2022-10-23T14:50:11.618Z,8.38
2022-10-23T14:52:41.542Z,8.40
2022-10-23T14:55:09.146Z,8.43
2022-10-23T14:57:36.175Z,8.48
2022-10-23T15:00:04.281Z,8.40
2022-10-23T15:02:38.817Z,8.47
2022-10-23T15:05:06.355Z,8.43
2022-10-23T15:07:42.427Z,8.50
2022-10-23T15:10:10.788Z,8.58
2022-10-23T15:12:39.398Z,8.62
2022-10-23T15:15:07.586Z,8.69
2022-10-23T15:17:35.920Z,8.66
2022-10-23T15:20:03.722Z,8.73
2022-10-23T15:22:31.064Z,8.61
2022-10-23T15:24:57.961Z,8.58
2022-10-23T15:27:24.912Z,8.68
2022-10-23T15:29:53.993Z,8.72
2022-10-23T15:32:27.963Z,8.82
2022-10-23T15:35:05.469Z,8.86
2022-10-23T15:37:32.431Z,8.67
2022-10-23T15:40:01.432Z,8.67
2022-10-23T15:42:39.501Z,8.72
2022-10-23T15:45:10.197Z,8.75
2022-10-23T15:47:52.933Z,8.54
2022-10-23T15:50:22.624Z,8.56
2022-10-23T15:52:51.970Z,8.71
2022-10-23T15:55:33.682Z,8.74
2022-10-23T15:58:05.678Z,8.78
2022-10-23T16:00:38.530Z,8.70
2022-10-23T16:03:07.923Z,8.65
2022-10-23T16:05:36.993Z,8.72
2022-10-23T16:08:06.370Z,8.68
2022-10-23T16:10:33.583Z,8.69
2022-10-23T16:13:00.715Z,8.73
2022-10-23T16:15:29.858Z,8.80
2022-10-23T16:18:06.750Z,8.86
2022-10-23T16:20:33.785Z,8.84
2022-10-23T16:23:06.768Z,8.89
2022-10-23T16:25:40.178Z,8.95
2022-10-23T16:28:09.736Z,8.96
2022-10-23T16:30:43.631Z,8.99
2022-10-23T16:33:13.690Z,8.97
2022-10-23T16:35:42.839Z,8.95
2022-10-23T16:38:16.638Z,9.00
2022-10-23T16:40:53.303Z,9.02
2022-10-23T16:43:52.989Z,9.02
2022-10-23T16:46:42.576Z,9.08
2022-10-23T16:49:09.789Z,8.97
2022-10-23T16:51:39.971Z,9.01
2022-10-23T16:54:18.182Z,8.96
2022-10-23T16:56:54.430Z,8.96
2022-10-23T16:59:23.145Z,9.05
2022-10-23T17:01:53.573Z,9.15
2022-10-23T17:04:20.931Z,9.20
2022-10-23T17:06:47.955Z,9.26
2022-10-23T17:09:15.159Z,9.19
2022-10-23T17:11:45.239Z,9.26
2022-10-23T17:14:21.211Z,9.25
2022-10-23T17:16:53.336Z,9.22
2022-10-23T17:19:44.519Z,9.24
2022-10-23T17:22:20.572Z,9.19
2022-10-23T17:24:50.241Z,9.24
2022-10-23T17:27:22.332Z,9.28
2022-10-23T17:29:49.318Z,9.30
2022-10-23T17:32:17.037Z,9.37
2022-10-23T17:34:48.094Z,9.38
2022-10-23T17:37:20.342Z,9.41
2022-10-23T17:39:56.350Z,9.43
2022-10-23T17:42:43.379Z,9.30
2022-10-23T17:45:11.000Z,9.27
2022-10-23T17:47:40.447Z,9.31
2022-10-23T17:50:13.223Z,9.28
2022-10-23T17:52:40.857Z,9.34
2022-10-23T17:55:11.181Z,9.37
2022-10-23T17:57:38.559Z,9.36
2022-10-23T18:00:08.237Z,9.40
2022-10-23T18:02:42.243Z,9.28
2022-10-23T18:05:09.642Z,9.42
2022-10-23T18:07:36.636Z,9.34
2022-10-23T18:10:08.250Z,9.33
2022-10-23T18:12:38.752Z,9.31
2022-10-23T18:15:14.241Z,9.29
2022-10-23T18:17:44.289Z,9.31
2022-10-23T18:20:30.007Z,9.32
2022-10-23T18:23:03.436Z,9.35
2022-10-23T18:25:56.769Z,9.35
2022-10-23T18:29:09.572Z,9.32
2022-10-23T18:32:27.969Z,9.30
2022-10-23T18:34:57.614Z,9.42
2022-10-23T18:37:31.756Z,9.43
2022-10-23T18:40:00.333Z,9.47
2022-10-23T18:42:30.195Z,9.47
2022-10-23T18:44:58.409Z,9.48
2022-10-23T18:47:26.367Z,9.47
2022-10-23T18:49:53.440Z,9.49
2022-10-23T18:52:24.002Z,9.49
2022-10-23T18:55:05.119Z,9.54
2022-10-23T18:57:33.782Z,9.54
2022-10-23T19:00:10.430Z,9.56
2022-10-23T19:02:38.827Z,9.61
2022-10-23T19:05:07.766Z,9.60
2022-10-23T19:07:35.679Z,9.60
2022-10-23T19:10:06.831Z,9.57
2022-10-23T19:12:33.896Z,9.57
2022-10-23T19:15:06.157Z,9.62
2022-10-23T19:17:33.334Z,9.57
2022-10-23T19:20:11.321Z,9.55
2022-10-23T19:22:45.136Z,9.52
2022-10-23T19:25:19.524Z,9.51
2022-10-23T19:27:57.154Z,9.49
2022-10-23T19:30:25.055Z,9.53
2022-10-23T19:32:52.620Z,9.51
2022-10-23T19:35:21.069Z,9.54
2022-10-23T19:37:50.567Z,9.55
2022-10-23T19:40:20.120Z,9.58
2022-10-23T19:42:48.255Z,9.49
2022-10-23T19:45:17.862Z,9.56
2022-10-23T19:47:48.523Z,9.51
2022-10-23T19:50:24.374Z,9.56
2022-10-23T19:52:51.479Z,9.56
2022-10-23T19:55:18.398Z,9.62
2022-10-23T19:57:45.676Z,9.64
2022-10-23T20:00:21.180Z,9.64
2022-10-23T20:02:50.202Z,9.67
2022-10-23T20:05:21.971Z,9.69
2022-10-23T20:07:51.562Z,9.66
2022-10-23T20:10:18.947Z,9.61
2022-10-23T20:12:57.095Z,9.64
2022-10-23T20:15:42.729Z,9.64
2022-10-23T20:18:10.029Z,9.65
2022-10-23T20:20:44.541Z,9.63
2022-10-23T20:23:17.329Z,9.65
2022-10-23T20:31:23.674Z,9.67
2022-10-23T20:33:55.050Z,9.67
2022-10-23T20:36:32.843Z,9.69
2022-10-23T20:39:05.720Z,9.71
2022-10-23T20:41:33.893Z,9.70
2022-10-23T20:44:01.375Z,9.70
2022-10-23T20:49:14.007Z,9.66
2022-10-23T20:51:44.012Z,9.70
2022-10-23T20:54:13.631Z,9.69
2022-10-23T20:59:28.259Z,9.77
2022-10-23T21:01:56.687Z,9.76
2022-10-23T21:04:30.393Z,9.76
2022-10-23T21:07:09.920Z,9.75
2022-10-23T21:09:40.185Z,9.74
2022-10-23T21:12:12.878Z,9.72
2022-10-23T21:14:39.895Z,9.71
2022-10-23T21:17:08.663Z,9.72
2022-10-23T21:19:35.931Z,9.70
2022-10-23T21:24:58.992Z,9.65
2022-10-23T21:30:24.972Z,9.62
2022-10-23T21:32:51.852Z,9.63
2022-10-23T21:35:18.852Z,9.67
2022-10-23T21:37:48.224Z,9.62
2022-10-23T21:40:15.318Z,9.62
2022-10-23T21:45:40.375Z,9.58
2022-10-23T21:48:14.759Z,9.59
2022-10-23T21:53:38.812Z,9.63
2022-10-23T21:56:05.800Z,9.61
2022-10-23T21:58:35.008Z,9.61
2022-10-23T22:01:02.180Z,9.60
2022-10-23T22:03:36.468Z,9.57
2022-10-23T22:06:03.585Z,9.61
2022-10-23T22:08:31.923Z,9.60
2022-10-23T22:13:46.494Z,9.63
2022-10-23T22:19:02.303Z,9.57
2022-10-23T22:24:17.783Z,9.50
2022-10-23T22:26:50.670Z,9.53
2022-10-23T22:29:27.960Z,9.46
2022-10-23T22:31:57.188Z,9.52
2022-10-23T22:42:43.400Z,9.41
2022-10-23T22:45:12.859Z,9.38
2022-10-23T22:50:24.288Z,9.44
2022-10-23T22:52:52.284Z,9.44
2022-10-23T22:55:19.264Z,9.47
2022-10-23T23:00:48.505Z,9.46
2022-10-23T23:03:18.373Z,9.51
2022-10-23T23:05:47.780Z,9.51
2022-10-23T23:08:19.850Z,9.54
2022-10-23T23:10:54.050Z,9.56
2022-10-23T23:13:21.172Z,9.60
2022-10-23T23:15:50.321Z,9.56
2022-10-23T23:18:17.423Z,9.55
2022-10-23T23:20:51.827Z,9.56
2022-10-23T23:23:19.216Z,9.51
2022-10-23T23:25:59.572Z,9.53
2022-10-23T23:28:26.735Z,9.55
2022-10-23T23:31:06.955Z,9.55
2022-10-23T23:33:34.846Z,9.54
2022-10-23T23:38:53.744Z,9.59
2022-10-23T23:41:22.006Z,9.59
2022-10-23T23:43:49.538Z,9.59
2022-10-23T23:51:53.017Z,9.60
2022-10-23T23:54:23.108Z,9.57
2022-10-23T23:56:50.203Z,9.52
